sensor_id;sensor_type;location;lat;lon;timestamp;temperature;humidity
32201;DHT22;18701;45.588;5.288;2023-07-22T00:02:11;22.20;99.90
32201;DHT22;18701;45.588;5.288;2023-07-22T00:04:37;22.20;99.90
32201;DHT22;18701;45.588;5.288;2023-07-22T00:07:03;21.70;99.90
32201;DHT22;18701;45.588;5.288;2023-07-22T00:09:29;21.60;99.90
32201;DHT22;18701;45.588;5.288;2023-07-22T00:11:54;22.00;99.90
32201;DHT22;18701;45.588;5.288;2023-07-22T00:14:20;22.10;99.90
32201;DHT22;18701;45.588;5.288;2023-07-22T00:16:45;22.10;99.90
32201;DHT22;18701;45.588;5.288;2023-07-22T00:19:11;22.20;99.90
32201;DHT22;18701;45.588;5.288;2023-07-22T00:21:36;22.00;99.90
32201;DHT22;18701;45.588;5.288;2023-07-22T00:24:02;22.10;99.90
32201;DHT22;18701;45.588;5.288;2023-07-22T00:26:28;22.00;99.90
32201;DHT22;18701;45.588;5.288;2023-07-22T00:28:53;22.10;99.90
32201;DHT22;18701;45.588;5.288;2023-07-22T00:31:19;21.90;99.90
32201;DHT22;18701;45.588;5.288;2023-07-22T00:33:45;22.00;99.90
32201;DHT22;18701;45.588;5.288;2023-07-22T00:36:10;22.10;99.90
32201;DHT22;18701;45.588;5.288;2023-07-22T00:38:36;22.10;99.90
32201;DHT22;18701;45.588;5.288;2023-07-22T00:41:01;22.00;99.90
32201;DHT22;18701;45.588;5.288;2023-07-22T00:43:30;22.00;99.90
32201;DHT22;18701;45.588;5.288;2023-07-22T00:45:55;22.10;99.90
32201;DHT22;18701;45.588;5.288;2023-07-22T00:48:21;22.00;99.90
32201;DHT22;18701;45.588;5.288;2023-07-22T00:50:47;22.00;99.90
32201;DHT22;18701;45.588;5.288;2023-07-22T00:53:13;21.80;99.90
32201;DHT22;18701;45.588;5.288;2023-07-22T00:55:39;21.80;99.90
32201;DHT22;18701;45.588;5.288;2023-07-22T00:58:06;21.70;99.90
32201;DHT22;18701;45.588;5.288;2023-07-22T01:00:32;21.90;99.90
32201;DHT22;18701;45.588;5.288;2023-07-22T01:02:58;21.80;99.90
32201;DHT22;18701;45.588;5.288;2023-07-22T01:05:25;21.80;99.90
32201;DHT22;18701;45.588;5.288;2023-07-22T01:07:52;21.90;99.90
32201;DHT22;18701;45.588;5.288;2023-07-22T01:10:18;21.80;99.90
32201;DHT22;18701;45.588;5.288;2023-07-22T01:12:44;21.80;99.90
32201;DHT22;18701;45.588;5.288;2023-07-22T01:15:10;21.80;99.90
32201;DHT22;18701;45.588;5.288;2023-07-22T01:17:37;21.80;99.90
32201;DHT22;18701;45.588;5.288;2023-07-22T01:20:03;21.80;99.90
32201;DHT22;18701;45.588;5.288;2023-07-22T01:22:30;21.70;99.90
32201;DHT22;18701;45.588;5.288;2023-07-22T01:24:56;21.20;99.90
32201;DHT22;18701;45.588;5.288;2023-07-22T01:27:23;20.80;99.90
32201;DHT22;18701;45.588;5.288;2023-07-22T01:29:51;21.00;99.90
32201;DHT22;18701;45.588;5.288;2023-07-22T01:32:17;21.30;99.90
32201;DHT22;18701;45.588;5.288;2023-07-22T01:34:42;21.40;99.90
32201;DHT22;18701;45.588;5.288;2023-07-22T01:37:08;21.40;99.90
32201;DHT22;18701;45.588;5.288;2023-07-22T01:39:35;21.30;99.90
32201;DHT22;18701;45.588;5.288;2023-07-22T01:42:01;21.30;99.90
32201;DHT22;18701;45.588;5.288;2023-07-22T01:44:27;21.20;99.90
32201;DHT22;18701;45.588;5.288;2023-07-22T01:46:52;21.30;99.90
32201;DHT22;18701;45.588;5.288;2023-07-22T01:49:18;21.20;99.90
32201;DHT22;18701;45.588;5.288;2023-07-22T01:51:44;21.30;99.90
32201;DHT22;18701;45.588;5.288;2023-07-22T01:54:10;21.30;99.90
32201;DHT22;18701;45.588;5.288;2023-07-22T01:56:36;21.20;99.90
32201;DHT22;18701;45.588;5.288;2023-07-22T01:59:02;21.20;99.90
32201;DHT22;18701;45.588;5.288;2023-07-22T02:01:28;21.20;99.90
32201;DHT22;18701;45.588;5.288;2023-07-22T02:03:54;20.40;99.90
32201;DHT22;18701;45.588;5.288;2023-07-22T02:06:20;20.20;99.90
32201;DHT22;18701;45.588;5.288;2023-07-22T02:08:46;20.10;99.90
32201;DHT22;18701;45.588;5.288;2023-07-22T02:11:12;20.80;99.90
32201;DHT22;18701;45.588;5.288;2023-07-22T02:13:37;20.80;99.90
32201;DHT22;18701;45.588;5.288;2023-07-22T02:16:03;21.00;99.90
32201;DHT22;18701;45.588;5.288;2023-07-22T02:18:29;20.90;99.90
32201;DHT22;18701;45.588;5.288;2023-07-22T02:20:56;21.00;99.90
32201;DHT22;18701;45.588;5.288;2023-07-22T02:23:22;20.70;99.90
32201;DHT22;18701;45.588;5.288;2023-07-22T02:25:52;20.90;99.90
32201;DHT22;18701;45.588;5.288;2023-07-22T02:28:19;20.50;99.90
32201;DHT22;18701;45.588;5.288;2023-07-22T02:30:49;20.50;99.90
32201;DHT22;18701;45.588;5.288;2023-07-22T02:33:15;20.50;99.90
32201;DHT22;18701;45.588;5.288;2023-07-22T02:35:41;20.30;99.90
32201;DHT22;18701;45.588;5.288;2023-07-22T02:38:07;20.60;99.90
32201;DHT22;18701;45.588;5.288;2023-07-22T02:40:37;20.60;99.90
32201;DHT22;18701;45.588;5.288;2023-07-22T02:43:03;20.50;99.90
32201;DHT22;18701;45.588;5.288;2023-07-22T02:45:29;20.30;99.90
32201;DHT22;18701;45.588;5.288;2023-07-22T02:47:54;20.30;99.90
32201;DHT22;18701;45.588;5.288;2023-07-22T02:50:20;20.00;99.90
32201;DHT22;18701;45.588;5.288;2023-07-22T02:52:46;20.10;99.90
32201;DHT22;18701;45.588;5.288;2023-07-22T02:55:16;20.00;99.90
32201;DHT22;18701;45.588;5.288;2023-07-22T02:57:44;20.40;99.90
32201;DHT22;18701;45.588;5.288;2023-07-22T03:00:12;20.40;99.90
32201;DHT22;18701;45.588;5.288;2023-07-22T03:02:41;20.40;99.90
32201;DHT22;18701;45.588;5.288;2023-07-22T03:05:07;20.30;99.90
32201;DHT22;18701;45.588;5.288;2023-07-22T03:07:40;20.30;99.90
32201;DHT22;18701;45.588;5.288;2023-07-22T03:10:06;20.30;99.90
32201;DHT22;18701;45.588;5.288;2023-07-22T03:12:33;20.50;99.90
32201;DHT22;18701;45.588;5.288;2023-07-22T03:14:58;20.70;99.90
32201;DHT22;18701;45.588;5.288;2023-07-22T03:17:24;20.80;99.90
32201;DHT22;18701;45.588;5.288;2023-07-22T03:19:50;20.70;99.90
32201;DHT22;18701;45.588;5.288;2023-07-22T03:22:17;20.70;99.90
32201;DHT22;18701;45.588;5.288;2023-07-22T03:24:43;20.80;99.90
32201;DHT22;18701;45.588;5.288;2023-07-22T03:27:09;20.80;99.90
32201;DHT22;18701;45.588;5.288;2023-07-22T03:29:35;20.80;99.90
32201;DHT22;18701;45.588;5.288;2023-07-22T03:32:01;20.70;99.90
32201;DHT22;18701;45.588;5.288;2023-07-22T03:34:27;20.70;99.90
32201;DHT22;18701;45.588;5.288;2023-07-22T03:36:53;20.60;99.90
32201;DHT22;18701;45.588;5.288;2023-07-22T03:39:19;20.70;99.90
32201;DHT22;18701;45.588;5.288;2023-07-22T03:41:45;20.70;99.90
32201;DHT22;18701;45.588;5.288;2023-07-22T03:44:11;20.60;99.90
32201;DHT22;18701;45.588;5.288;2023-07-22T03:46:37;20.60;99.90
32201;DHT22;18701;45.588;5.288;2023-07-22T03:49:03;20.50;99.90
32201;DHT22;18701;45.588;5.288;2023-07-22T03:51:28;20.20;99.90
32201;DHT22;18701;45.588;5.288;2023-07-22T03:53:54;20.40;99.90
32201;DHT22;18701;45.588;5.288;2023-07-22T03:56:20;20.30;99.90
32201;DHT22;18701;45.588;5.288;2023-07-22T03:58:45;20.40;99.90
32201;DHT22;18701;45.588;5.288;2023-07-22T04:01:12;20.40;99.90
32201;DHT22;18701;45.588;5.288;2023-07-22T04:03:37;20.40;99.90
32201;DHT22;18701;45.588;5.288;2023-07-22T04:06:03;20.40;99.90
32201;DHT22;18701;45.588;5.288;2023-07-22T04:08:29;20.50;99.90
32201;DHT22;18701;45.588;5.288;2023-07-22T04:10:56;20.40;99.90
32201;DHT22;18701;45.588;5.288;2023-07-22T04:13:22;20.40;99.90
32201;DHT22;18701;45.588;5.288;2023-07-22T04:15:48;20.20;99.90
32201;DHT22;18701;45.588;5.288;2023-07-22T04:18:18;20.20;99.90
32201;DHT22;18701;45.588;5.288;2023-07-22T04:20:45;20.30;99.90
32201;DHT22;18701;45.588;5.288;2023-07-22T04:23:12;20.30;99.90
32201;DHT22;18701;45.588;5.288;2023-07-22T04:25:41;20.30;99.90
32201;DHT22;18701;45.588;5.288;2023-07-22T04:28:07;20.30;99.90
32201;DHT22;18701;45.588;5.288;2023-07-22T04:30:34;20.40;99.90
32201;DHT22;18701;45.588;5.288;2023-07-22T04:33:00;20.40;99.90
32201;DHT22;18701;45.588;5.288;2023-07-22T04:35:25;20.40;99.90
32201;DHT22;18701;45.588;5.288;2023-07-22T04:37:51;20.40;99.90
32201;DHT22;18701;45.588;5.288;2023-07-22T04:40:17;20.40;99.90
32201;DHT22;18701;45.588;5.288;2023-07-22T04:42:44;20.30;99.90
32201;DHT22;18701;45.588;5.288;2023-07-22T04:45:10;20.20;99.90
32201;DHT22;18701;45.588;5.288;2023-07-22T04:47:37;20.40;99.90
32201;DHT22;18701;45.588;5.288;2023-07-22T04:50:04;20.40;99.90
32201;DHT22;18701;45.588;5.288;2023-07-22T04:52:32;20.20;99.90
32201;DHT22;18701;45.588;5.288;2023-07-22T04:54:58;20.30;99.90
32201;DHT22;18701;45.588;5.288;2023-07-22T04:57:23;20.40;99.90
32201;DHT22;18701;45.588;5.288;2023-07-22T04:59:52;20.40;99.90
32201;DHT22;18701;45.588;5.288;2023-07-22T05:02:18;20.30;99.90
32201;DHT22;18701;45.588;5.288;2023-07-22T05:04:43;20.30;99.90
32201;DHT22;18701;45.588;5.288;2023-07-22T05:07:09;20.40;99.90
32201;DHT22;18701;45.588;5.288;2023-07-22T05:09:36;20.30;99.90
32201;DHT22;18701;45.588;5.288;2023-07-22T05:12:02;20.50;99.90
32201;DHT22;18701;45.588;5.288;2023-07-22T05:14:27;20.40;99.90
32201;DHT22;18701;45.588;5.288;2023-07-22T05:16:53;20.40;99.90
32201;DHT22;18701;45.588;5.288;2023-07-22T05:19:18;20.50;99.90
32201;DHT22;18701;45.588;5.288;2023-07-22T05:21:46;20.40;99.90
32201;DHT22;18701;45.588;5.288;2023-07-22T05:24:11;20.30;99.90
32201;DHT22;18701;45.588;5.288;2023-07-22T05:26:37;20.20;99.90
32201;DHT22;18701;45.588;5.288;2023-07-22T05:29:03;20.40;99.90
32201;DHT22;18701;45.588;5.288;2023-07-22T05:31:29;20.30;99.90
32201;DHT22;18701;45.588;5.288;2023-07-22T05:33:54;20.40;99.90
32201;DHT22;18701;45.588;5.288;2023-07-22T05:36:20;20.60;99.90
32201;DHT22;18701;45.588;5.288;2023-07-22T05:38:46;20.60;99.90
32201;DHT22;18701;45.588;5.288;2023-07-22T05:41:11;20.50;99.90
32201;DHT22;18701;45.588;5.288;2023-07-22T05:43:37;20.50;99.90
32201;DHT22;18701;45.588;5.288;2023-07-22T05:46:03;20.50;99.90
32201;DHT22;18701;45.588;5.288;2023-07-22T05:48:28;20.40;99.90
32201;DHT22;18701;45.588;5.288;2023-07-22T05:50:54;20.50;99.90
32201;DHT22;18701;45.588;5.288;2023-07-22T05:53:20;20.40;99.90
32201;DHT22;18701;45.588;5.288;2023-07-22T05:55:45;20.60;99.90
32201;DHT22;18701;45.588;5.288;2023-07-22T05:58:17;20.40;99.90
32201;DHT22;18701;45.588;5.288;2023-07-22T06:00:46;20.50;99.90
32201;DHT22;18701;45.588;5.288;2023-07-22T06:03:12;20.40;99.90
32201;DHT22;18701;45.588;5.288;2023-07-22T06:05:38;20.40;99.90
32201;DHT22;18701;45.588;5.288;2023-07-22T06:08:04;20.40;99.90
32201;DHT22;18701;45.588;5.288;2023-07-22T06:10:30;20.40;99.90
32201;DHT22;18701;45.588;5.288;2023-07-22T06:12:55;20.40;99.90
32201;DHT22;18701;45.588;5.288;2023-07-22T06:15:21;20.50;99.90
32201;DHT22;18701;45.588;5.288;2023-07-22T06:17:47;20.60;99.90
32201;DHT22;18701;45.588;5.288;2023-07-22T06:20:13;20.60;99.90
32201;DHT22;18701;45.588;5.288;2023-07-22T06:22:39;20.70;99.90
32201;DHT22;18701;45.588;5.288;2023-07-22T06:25:05;20.70;99.90
32201;DHT22;18701;45.588;5.288;2023-07-22T06:27:30;20.70;99.90
32201;DHT22;18701;45.588;5.288;2023-07-22T06:29:56;20.90;99.90
32201;DHT22;18701;45.588;5.288;2023-07-22T06:32:23;20.90;99.90
32201;DHT22;18701;45.588;5.288;2023-07-22T06:34:49;20.90;99.90
32201;DHT22;18701;45.588;5.288;2023-07-22T06:37:14;20.90;99.90
32201;DHT22;18701;45.588;5.288;2023-07-22T06:39:40;20.70;99.90
32201;DHT22;18701;45.588;5.288;2023-07-22T06:42:06;20.80;99.90
32201;DHT22;18701;45.588;5.288;2023-07-22T06:44:31;20.90;99.90
32201;DHT22;18701;45.588;5.288;2023-07-22T06:46:57;21.10;99.90
32201;DHT22;18701;45.588;5.288;2023-07-22T06:49:23;21.20;99.90
32201;DHT22;18701;45.588;5.288;2023-07-22T06:51:48;21.10;99.90
32201;DHT22;18701;45.588;5.288;2023-07-22T06:54:14;21.00;99.90
32201;DHT22;18701;45.588;5.288;2023-07-22T06:56:40;21.00;99.90
32201;DHT22;18701;45.588;5.288;2023-07-22T06:59:06;21.10;99.90
32201;DHT22;18701;45.588;5.288;2023-07-22T07:01:32;21.20;99.90
32201;DHT22;18701;45.588;5.288;2023-07-22T07:03:57;21.20;99.90
32201;DHT22;18701;45.588;5.288;2023-07-22T07:06:23;21.30;99.90
32201;DHT22;18701;45.588;5.288;2023-07-22T07:08:49;21.50;99.90
32201;DHT22;18701;45.588;5.288;2023-07-22T07:11:14;21.50;99.90
32201;DHT22;18701;45.588;5.288;2023-07-22T07:13:40;21.50;99.90
32201;DHT22;18701;45.588;5.288;2023-07-22T07:16:26;21.50;99.90
32201;DHT22;18701;45.588;5.288;2023-07-22T07:18:52;21.70;99.90
32201;DHT22;18701;45.588;5.288;2023-07-22T07:21:19;21.60;99.90
32201;DHT22;18701;45.588;5.288;2023-07-22T07:23:45;21.60;99.90
32201;DHT22;18701;45.588;5.288;2023-07-22T07:26:11;21.60;99.90
32201;DHT22;18701;45.588;5.288;2023-07-22T07:28:37;21.50;99.90
32201;DHT22;18701;45.588;5.288;2023-07-22T07:31:02;21.50;99.90
32201;DHT22;18701;45.588;5.288;2023-07-22T07:33:28;21.60;99.90
32201;DHT22;18701;45.588;5.288;2023-07-22T07:35:54;21.90;99.90
32201;DHT22;18701;45.588;5.288;2023-07-22T07:38:20;21.80;99.90
32201;DHT22;18701;45.588;5.288;2023-07-22T07:40:45;21.80;99.90
32201;DHT22;18701;45.588;5.288;2023-07-22T07:43:11;21.90;99.90
32201;DHT22;18701;45.588;5.288;2023-07-22T07:45:39;22.00;99.90
32201;DHT22;18701;45.588;5.288;2023-07-22T07:48:05;22.10;99.90
32201;DHT22;18701;45.588;5.288;2023-07-22T07:50:32;22.20;99.90
32201;DHT22;18701;45.588;5.288;2023-07-22T07:52:58;22.20;99.90
32201;DHT22;18701;45.588;5.288;2023-07-22T07:55:25;22.30;99.90
32201;DHT22;18701;45.588;5.288;2023-07-22T07:57:50;22.20;99.90
32201;DHT22;18701;45.588;5.288;2023-07-22T08:00:16;22.30;99.90
32201;DHT22;18701;45.588;5.288;2023-07-22T08:02:42;22.30;99.90
32201;DHT22;18701;45.588;5.288;2023-07-22T08:05:08;22.40;99.90
32201;DHT22;18701;45.588;5.288;2023-07-22T08:07:33;22.40;99.90
32201;DHT22;18701;45.588;5.288;2023-07-22T08:09:59;22.60;99.90
32201;DHT22;18701;45.588;5.288;2023-07-22T08:12:26;22.60;99.90
32201;DHT22;18701;45.588;5.288;2023-07-22T08:14:53;22.70;99.90
32201;DHT22;18701;45.588;5.288;2023-07-22T08:17:18;22.70;99.90
32201;DHT22;18701;45.588;5.288;2023-07-22T08:19:44;22.70;99.90
32201;DHT22;18701;45.588;5.288;2023-07-22T08:22:10;22.80;99.90
32201;DHT22;18701;45.588;5.288;2023-07-22T08:24:36;22.70;99.90
32201;DHT22;18701;45.588;5.288;2023-07-22T08:27:01;22.80;99.90
32201;DHT22;18701;45.588;5.288;2023-07-22T08:29:27;22.70;99.90
32201;DHT22;18701;45.588;5.288;2023-07-22T08:31:53;22.90;99.90
32201;DHT22;18701;45.588;5.288;2023-07-22T08:34:18;23.00;99.90
32201;DHT22;18701;45.588;5.288;2023-07-22T08:36:44;23.00;99.90
32201;DHT22;18701;45.588;5.288;2023-07-22T08:39:09;23.10;99.90
32201;DHT22;18701;45.588;5.288;2023-07-22T08:41:36;23.10;99.90
32201;DHT22;18701;45.588;5.288;2023-07-22T08:44:04;23.20;99.90
32201;DHT22;18701;45.588;5.288;2023-07-22T08:46:32;23.40;99.90
32201;DHT22;18701;45.588;5.288;2023-07-22T08:49:00;23.60;99.90
32201;DHT22;18701;45.588;5.288;2023-07-22T08:51:26;23.80;99.90
32201;DHT22;18701;45.588;5.288;2023-07-22T08:53:56;23.90;99.90
32201;DHT22;18701;45.588;5.288;2023-07-22T08:56:25;23.80;99.90
32201;DHT22;18701;45.588;5.288;2023-07-22T08:58:52;23.90;99.90
32201;DHT22;18701;45.588;5.288;2023-07-22T09:01:18;24.10;99.90
32201;DHT22;18701;45.588;5.288;2023-07-22T09:03:44;24.10;99.90
32201;DHT22;18701;45.588;5.288;2023-07-22T09:06:12;24.20;99.90
32201;DHT22;18701;45.588;5.288;2023-07-22T09:08:39;24.10;99.90
32201;DHT22;18701;45.588;5.288;2023-07-22T09:11:04;23.90;99.90
32201;DHT22;18701;45.588;5.288;2023-07-22T09:13:31;24.30;99.90
32201;DHT22;18701;45.588;5.288;2023-07-22T09:15:58;24.60;99.90
32201;DHT22;18701;45.588;5.288;2023-07-22T09:18:24;24.60;99.90
32201;DHT22;18701;45.588;5.288;2023-07-22T09:20:50;24.60;99.90
32201;DHT22;18701;45.588;5.288;2023-07-22T09:23:16;24.70;99.90
32201;DHT22;18701;45.588;5.288;2023-07-22T09:25:42;24.70;99.90
32201;DHT22;18701;45.588;5.288;2023-07-22T09:28:08;24.70;99.90
32201;DHT22;18701;45.588;5.288;2023-07-22T09:30:37;24.90;99.90
32201;DHT22;18701;45.588;5.288;2023-07-22T09:33:05;24.90;99.90
32201;DHT22;18701;45.588;5.288;2023-07-22T09:35:44;25.10;99.90
32201;DHT22;18701;45.588;5.288;2023-07-22T09:38:10;25.30;99.00
32201;DHT22;18701;45.588;5.288;2023-07-22T09:40:40;25.40;99.00
32201;DHT22;18701;45.588;5.288;2023-07-22T09:43:08;25.50;98.50
32201;DHT22;18701;45.588;5.288;2023-07-22T09:45:35;25.60;97.80
32201;DHT22;18701;45.588;5.288;2023-07-22T09:48:00;25.80;97.10
32201;DHT22;18701;45.588;5.288;2023-07-22T09:50:26;26.00;97.00
32201;DHT22;18701;45.588;5.288;2023-07-22T09:52:57;25.90;94.60
32201;DHT22;18701;45.588;5.288;2023-07-22T09:55:29;26.10;95.50
32201;DHT22;18701;45.588;5.288;2023-07-22T09:58:00;26.10;95.00
32201;DHT22;18701;45.588;5.288;2023-07-22T10:00:30;26.10;93.70
32201;DHT22;18701;45.588;5.288;2023-07-22T10:02:57;25.90;93.80
32201;DHT22;18701;45.588;5.288;2023-07-22T10:05:25;25.80;94.10
32201;DHT22;18701;45.588;5.288;2023-07-22T10:07:56;25.90;94.40
32201;DHT22;18701;45.588;5.288;2023-07-22T10:10:32;26.00;94.30
32201;DHT22;18701;45.588;5.288;2023-07-22T10:12:58;25.90;93.70
32201;DHT22;18701;45.588;5.288;2023-07-22T10:15:25;26.20;93.90
32201;DHT22;18701;45.588;5.288;2023-07-22T10:17:53;26.30;93.50
32201;DHT22;18701;45.588;5.288;2023-07-22T10:20:20;26.60;93.20
32201;DHT22;18701;45.588;5.288;2023-07-22T10:22:47;26.80;94.10
32201;DHT22;18701;45.588;5.288;2023-07-22T10:25:19;27.00;94.50
32201;DHT22;18701;45.588;5.288;2023-07-22T10:27:46;27.20;94.80
32201;DHT22;18701;45.588;5.288;2023-07-22T10:30:14;27.10;93.00
32201;DHT22;18701;45.588;5.288;2023-07-22T10:32:42;26.80;93.80
32201;DHT22;18701;45.588;5.288;2023-07-22T10:35:10;26.70;93.60
32201;DHT22;18701;45.588;5.288;2023-07-22T10:37:37;26.70;93.10
32201;DHT22;18701;45.588;5.288;2023-07-22T10:43:05;27.20;94.00
32201;DHT22;18701;45.588;5.288;2023-07-22T10:45:40;27.50;92.70
32201;DHT22;18701;45.588;5.288;2023-07-22T10:48:07;27.40;92.80
32201;DHT22;18701;45.588;5.288;2023-07-22T10:50:43;27.60;94.00
32201;DHT22;18701;45.588;5.288;2023-07-22T10:53:29;27.80;93.40
32201;DHT22;18701;45.588;5.288;2023-07-22T10:56:14;27.90;92.90
32201;DHT22;18701;45.588;5.288;2023-07-22T11:06:51;27.60;92.30
32201;DHT22;18701;45.588;5.288;2023-07-22T11:14:30;27.90;91.80
32201;DHT22;18701;45.588;5.288;2023-07-22T11:17:00;27.90;92.00
32201;DHT22;18701;45.588;5.288;2023-07-22T11:19:26;27.40;91.70
32201;DHT22;18701;45.588;5.288;2023-07-22T11:21:53;27.80;91.70
32201;DHT22;18701;45.588;5.288;2023-07-22T11:24:21;27.50;91.80
32201;DHT22;18701;45.588;5.288;2023-07-22T11:26:48;27.70;91.40
32201;DHT22;18701;45.588;5.288;2023-07-22T11:29:14;27.80;91.60
32201;DHT22;18701;45.588;5.288;2023-07-22T11:31:42;28.00;91.20
32201;DHT22;18701;45.588;5.288;2023-07-22T11:34:09;28.00;91.40
32201;DHT22;18701;45.588;5.288;2023-07-22T11:36:34;28.40;91.40
32201;DHT22;18701;45.588;5.288;2023-07-22T11:39:05;28.30;91.20
32201;DHT22;18701;45.588;5.288;2023-07-22T11:41:32;28.40;90.60
32201;DHT22;18701;45.588;5.288;2023-07-22T11:43:58;28.30;90.40
32201;DHT22;18701;45.588;5.288;2023-07-22T11:46:28;28.10;90.20
32201;DHT22;18701;45.588;5.288;2023-07-22T11:48:55;28.50;90.80
32201;DHT22;18701;45.588;5.288;2023-07-22T11:51:22;28.70;90.20
32201;DHT22;18701;45.588;5.288;2023-07-22T11:53:49;28.50;90.50
32201;DHT22;18701;45.588;5.288;2023-07-22T11:56:24;28.70;90.30
32201;DHT22;18701;45.588;5.288;2023-07-22T11:58:51;29.00;90.20
32201;DHT22;18701;45.588;5.288;2023-07-22T12:01:17;28.70;90.80
32201;DHT22;18701;45.588;5.288;2023-07-22T12:03:43;28.80;90.70
32201;DHT22;18701;45.588;5.288;2023-07-22T12:06:09;28.90;89.90
32201;DHT22;18701;45.588;5.288;2023-07-22T12:08:36;28.70;87.90
32201;DHT22;18701;45.588;5.288;2023-07-22T12:11:02;28.60;88.50
32201;DHT22;18701;45.588;5.288;2023-07-22T12:13:29;28.90;87.80
32201;DHT22;18701;45.588;5.288;2023-07-22T12:16:01;29.20;87.20
32201;DHT22;18701;45.588;5.288;2023-07-22T12:18:28;29.20;86.50
32201;DHT22;18701;45.588;5.288;2023-07-22T12:20:53;29.20;85.30
32201;DHT22;18701;45.588;5.288;2023-07-22T12:23:19;29.40;85.60
32201;DHT22;18701;45.588;5.288;2023-07-22T12:25:46;29.00;85.40
32201;DHT22;18701;45.588;5.288;2023-07-22T12:28:12;29.30;85.30
32201;DHT22;18701;45.588;5.288;2023-07-22T12:30:38;29.10;85.10
32201;DHT22;18701;45.588;5.288;2023-07-22T12:33:03;29.50;85.00
32201;DHT22;18701;45.588;5.288;2023-07-22T12:35:29;29.60;85.00
32201;DHT22;18701;45.588;5.288;2023-07-22T12:37:55;30.20;86.60
32201;DHT22;18701;45.588;5.288;2023-07-22T12:40:20;30.30;84.50
32201;DHT22;18701;45.588;5.288;2023-07-22T12:42:46;30.20;83.50
32201;DHT22;18701;45.588;5.288;2023-07-22T12:45:12;30.10;83.10
32201;DHT22;18701;45.588;5.288;2023-07-22T12:47:38;30.40;82.20
32201;DHT22;18701;45.588;5.288;2023-07-22T12:50:05;30.60;81.50
32201;DHT22;18701;45.588;5.288;2023-07-22T12:52:33;30.70;82.80
32201;DHT22;18701;45.588;5.288;2023-07-22T12:54:58;30.40;81.80
32201;DHT22;18701;45.588;5.288;2023-07-22T12:57:24;30.70;80.70
32201;DHT22;18701;45.588;5.288;2023-07-22T12:59:49;30.40;80.50
32201;DHT22;18701;45.588;5.288;2023-07-22T13:02:16;30.30;78.90
32201;DHT22;18701;45.588;5.288;2023-07-22T13:04:42;30.40;78.80
32201;DHT22;18701;45.588;5.288;2023-07-22T13:07:09;30.70;78.90
32201;DHT22;18701;45.588;5.288;2023-07-22T13:09:34;30.80;79.80
32201;DHT22;18701;45.588;5.288;2023-07-22T13:12:00;30.60;77.50
32201;DHT22;18701;45.588;5.288;2023-07-22T13:14:26;31.20;77.50
32201;DHT22;18701;45.588;5.288;2023-07-22T13:16:51;31.10;77.50
32201;DHT22;18701;45.588;5.288;2023-07-22T13:19:17;31.30;78.60
32201;DHT22;18701;45.588;5.288;2023-07-22T13:21:42;31.20;78.00
32201;DHT22;18701;45.588;5.288;2023-07-22T13:24:08;30.90;76.90
32201;DHT22;18701;45.588;5.288;2023-07-22T13:26:34;30.90;76.90
32201;DHT22;18701;45.588;5.288;2023-07-22T13:29:00;31.20;75.90
32201;DHT22;18701;45.588;5.288;2023-07-22T13:31:25;31.20;75.40
32201;DHT22;18701;45.588;5.288;2023-07-22T13:33:51;30.80;74.10
32201;DHT22;18701;45.588;5.288;2023-07-22T13:36:16;30.70;73.30
32201;DHT22;18701;45.588;5.288;2023-07-22T13:38:42;31.00;74.40
32201;DHT22;18701;45.588;5.288;2023-07-22T13:41:07;31.00;72.90
32201;DHT22;18701;45.588;5.288;2023-07-22T13:43:33;31.00;72.50
32201;DHT22;18701;45.588;5.288;2023-07-22T13:45:59;31.20;74.50
32201;DHT22;18701;45.588;5.288;2023-07-22T13:48:24;31.70;73.00
32201;DHT22;18701;45.588;5.288;2023-07-22T13:50:50;31.50;72.50
32201;DHT22;18701;45.588;5.288;2023-07-22T13:53:15;32.00;73.20
32201;DHT22;18701;45.588;5.288;2023-07-22T13:55:43;31.70;72.50
32201;DHT22;18701;45.588;5.288;2023-07-22T13:58:08;30.90;72.50
32201;DHT22;18701;45.588;5.288;2023-07-22T14:00:34;31.10;72.90
32201;DHT22;18701;45.588;5.288;2023-07-22T14:03:00;31.80;75.00
32201;DHT22;18701;45.588;5.288;2023-07-22T14:05:26;32.10;71.90
32201;DHT22;18701;45.588;5.288;2023-07-22T14:07:51;32.60;72.70
32201;DHT22;18701;45.588;5.288;2023-07-22T14:10:18;32.70;73.50
32201;DHT22;18701;45.588;5.288;2023-07-22T14:12:43;32.70;72.10
32201;DHT22;18701;45.588;5.288;2023-07-22T14:15:09;32.30;72.00
32201;DHT22;18701;45.588;5.288;2023-07-22T14:17:35;32.70;72.10
32201;DHT22;18701;45.588;5.288;2023-07-22T14:20:03;32.90;71.70
32201;DHT22;18701;45.588;5.288;2023-07-22T14:22:30;33.00;74.90
32201;DHT22;18701;45.588;5.288;2023-07-22T14:24:56;32.60;72.00
32201;DHT22;18701;45.588;5.288;2023-07-22T14:27:21;32.20;71.10
32201;DHT22;18701;45.588;5.288;2023-07-22T14:29:47;32.00;71.00
32201;DHT22;18701;45.588;5.288;2023-07-22T14:32:12;32.60;73.20
32201;DHT22;18701;45.588;5.288;2023-07-22T14:34:38;32.80;70.80
32201;DHT22;18701;45.588;5.288;2023-07-22T14:37:04;32.60;70.40
32201;DHT22;18701;45.588;5.288;2023-07-22T14:39:30;32.50;70.30
32201;DHT22;18701;45.588;5.288;2023-07-22T14:41:55;32.40;70.20
32201;DHT22;18701;45.588;5.288;2023-07-22T14:44:21;32.30;71.10
32201;DHT22;18701;45.588;5.288;2023-07-22T14:46:46;32.10;70.10
32201;DHT22;18701;45.588;5.288;2023-07-22T14:49:12;32.40;70.20
32201;DHT22;18701;45.588;5.288;2023-07-22T14:51:38;32.30;70.70
32201;DHT22;18701;45.588;5.288;2023-07-22T14:54:04;32.50;70.30
32201;DHT22;18701;45.588;5.288;2023-07-22T14:56:29;32.60;70.30
32201;DHT22;18701;45.588;5.288;2023-07-22T14:58:55;31.80;69.70
32201;DHT22;18701;45.588;5.288;2023-07-22T15:01:24;32.40;71.00
32201;DHT22;18701;45.588;5.288;2023-07-22T15:03:49;32.30;72.00
32201;DHT22;18701;45.588;5.288;2023-07-22T15:06:15;32.50;71.30
32201;DHT22;18701;45.588;5.288;2023-07-22T15:08:40;32.70;71.30
32201;DHT22;18701;45.588;5.288;2023-07-22T15:11:07;32.70;71.70
32201;DHT22;18701;45.588;5.288;2023-07-22T15:13:33;32.70;70.20
32201;DHT22;18701;45.588;5.288;2023-07-22T15:15:58;32.40;70.10
32201;DHT22;18701;45.588;5.288;2023-07-22T15:18:24;32.80;70.70
32201;DHT22;18701;45.588;5.288;2023-07-22T15:20:53;32.80;71.80
32201;DHT22;18701;45.588;5.288;2023-07-22T15:23:19;33.00;70.90
32201;DHT22;18701;45.588;5.288;2023-07-22T15:25:45;32.10;70.50
32201;DHT22;18701;45.588;5.288;2023-07-22T15:28:10;32.20;70.70
32201;DHT22;18701;45.588;5.288;2023-07-22T15:30:36;31.70;70.80
32201;DHT22;18701;45.588;5.288;2023-07-22T15:33:01;32.20;70.80
32201;DHT22;18701;45.588;5.288;2023-07-22T15:35:27;32.40;71.50
32201;DHT22;18701;45.588;5.288;2023-07-22T15:37:53;32.80;71.30
32201;DHT22;18701;45.588;5.288;2023-07-22T15:40:20;32.50;70.10
32201;DHT22;18701;45.588;5.288;2023-07-22T15:42:45;32.10;70.90